sensor_id;sensor_type;location;lat;lon;timestamp;pressure;altitude;pressure_sealevel;temperature;humidity
67377;BME280;54261;46.086;6.588;2023-04-08T00:01:19;92532.13;;;5.03;39.80
67377;BME280;54261;46.086;6.588;2023-04-08T00:06:21;92551.34;;;3.75;41.54
67377;BME280;54261;46.086;6.588;2023-04-08T00:11:23;92529.38;;;4.20;41.21
67377;BME280;54261;46.086;6.588;2023-04-08T00:16:25;92535.34;;;4.36;41.64
67377;BME280;54261;46.086;6.588;2023-04-08T00:21:26;92545.22;;;4.70;40.77
67377;BME280;54261;46.086;6.588;2023-04-08T00:26:28;92534.16;;;4.87;40.23
67377;BME280;54261;46.086;6.588;2023-04-08T00:31:30;92535.97;;;4.27;40.99
67377;BME280;54261;46.086;6.588;2023-04-08T00:36:32;92523.75;;;4.21;41.12
67377;BME280;54261;46.086;6.588;2023-04-08T00:41:35;92528.63;;;4.09;41.32
67377;BME280;54261;46.086;6.588;2023-04-08T00:46:38;92531.59;;;4.02;41.84
67377;BME280;54261;46.086;6.588;2023-04-08T00:51:41;92535.53;;;4.10;42.55
67377;BME280;54261;46.086;6.588;2023-04-08T00:56:43;92535.56;;;4.45;40.87
67377;BME280;54261;46.086;6.588;2023-04-08T01:07:14;92520.22;;;3.91;42.42
67377;BME280;54261;46.086;6.588;2023-04-08T01:12:39;92528.09;;;4.12;42.22
67377;BME280;54261;46.086;6.588;2023-04-08T01:17:43;92531.84;;;3.95;41.57
67377;BME280;54261;46.086;6.588;2023-04-08T01:28:12;92512.88;;;4.18;41.70
67377;BME280;54261;46.086;6.588;2023-04-08T01:33:17;92537.50;;;4.34;41.68
67377;BME280;54261;46.086;6.588;2023-04-08T01:38:22;92530.66;;;4.22;41.18
67377;BME280;54261;46.086;6.588;2023-04-08T01:43:25;92526.63;;;3.80;42.12
67377;BME280;54261;46.086;6.588;2023-04-08T01:48:29;92532.75;;;4.31;41.54
67377;BME280;54261;46.086;6.588;2023-04-08T01:53:32;92511.59;;;4.15;40.27
67377;BME280;54261;46.086;6.588;2023-04-08T01:58:38;92531.84;;;3.95;41.23
67377;BME280;54261;46.086;6.588;2023-04-08T02:03:43;92524.00;;;3.04;42.20
67377;BME280;54261;46.086;6.588;2023-04-08T02:08:48;92515.84;;;3.66;42.56
67377;BME280;54261;46.086;6.588;2023-04-08T02:13:51;92536.53;;;4.19;41.40
67377;BME280;54261;46.086;6.588;2023-04-08T02:19:07;92508.75;;;3.96;40.95
67377;BME280;54261;46.086;6.588;2023-04-08T02:24:12;92535.94;;;3.77;39.59
67377;BME280;54261;46.086;6.588;2023-04-08T02:29:15;92522.69;;;3.06;42.03
67377;BME280;54261;46.086;6.588;2023-04-08T02:34:19;92529.13;;;3.61;41.55
67377;BME280;54261;46.086;6.588;2023-04-08T02:39:30;92528.31;;;3.65;40.87
67377;BME280;54261;46.086;6.588;2023-04-08T02:44:32;92531.63;;;3.92;41.23
67377;BME280;54261;46.086;6.588;2023-04-08T02:49:36;92527.56;;;4.10;40.70
67377;BME280;54261;46.086;6.588;2023-04-08T02:54:38;92528.13;;;3.96;40.78
67377;BME280;54261;46.086;6.588;2023-04-08T02:59:40;92516.66;;;3.61;40.74
67377;BME280;54261;46.086;6.588;2023-04-08T03:04:42;92536.41;;;3.90;40.77
67377;BME280;54261;46.086;6.588;2023-04-08T03:09:44;92537.28;;;3.69;40.67
67377;BME280;54261;46.086;6.588;2023-04-08T03:14:45;92533.94;;;3.48;40.67
67377;BME280;54261;46.086;6.588;2023-04-08T03:19:48;92531.94;;;3.85;41.06
67377;BME280;54261;46.086;6.588;2023-04-08T03:24:49;92531.09;;;3.24;40.22
67377;BME280;54261;46.086;6.588;2023-04-08T03:29:51;92533.34;;;2.44;42.74
67377;BME280;54261;46.086;6.588;2023-04-08T03:34:54;92540.22;;;2.92;43.84
67377;BME280;54261;46.086;6.588;2023-04-08T03:39:55;92533.28;;;3.06;42.32
67377;BME280;54261;46.086;6.588;2023-04-08T03:44:57;92541.69;;;3.29;42.50
67377;BME280;54261;46.086;6.588;2023-04-08T03:49:59;92539.47;;;3.62;42.56
67377;BME280;54261;46.086;6.588;2023-04-08T03:55:01;92539.91;;;3.80;41.54
67377;BME280;54261;46.086;6.588;2023-04-08T04:00:03;92540.75;;;2.42;42.98
67377;BME280;54261;46.086;6.588;2023-04-08T04:05:12;92543.91;;;3.77;41.05
67377;BME280;54261;46.086;6.588;2023-04-08T04:10:14;92545.50;;;2.86;42.43
67377;BME280;54261;46.086;6.588;2023-04-08T04:15:16;92543.81;;;3.37;41.30
67377;BME280;54261;46.086;6.588;2023-04-08T04:20:18;92544.28;;;3.50;41.74
67377;BME280;54261;46.086;6.588;2023-04-08T04:25:20;92543.97;;;3.67;41.17
67377;BME280;54261;46.086;6.588;2023-04-08T04:30:23;92545.94;;;3.35;41.25
67377;BME280;54261;46.086;6.588;2023-04-08T04:35:24;92552.34;;;3.19;42.09
67377;BME280;54261;46.086;6.588;2023-04-08T04:40:26;92550.09;;;3.62;41.33
67377;BME280;54261;46.086;6.588;2023-04-08T04:45:28;92555.97;;;3.49;41.14
67377;BME280;54261;46.086;6.588;2023-04-08T04:50:30;92544.81;;;3.57;40.58
67377;BME280;54261;46.086;6.588;2023-04-08T04:55:31;92559.28;;;3.85;40.35
67377;BME280;54261;46.086;6.588;2023-04-08T05:00:33;92563.25;;;3.83;39.61
67377;BME280;54261;46.086;6.588;2023-04-08T05:05:35;92556.66;;;3.75;39.81
67377;BME280;54261;46.086;6.588;2023-04-08T05:10:39;92570.44;;;3.77;39.29
67377;BME280;54261;46.086;6.588;2023-04-08T05:15:41;92556.16;;;3.68;39.63
67377;BME280;54261;46.086;6.588;2023-04-08T05:20:44;92566.72;;;3.83;39.72
67377;BME280;54261;46.086;6.588;2023-04-08T05:25:47;92540.16;;;3.12;39.38
67377;BME280;54261;46.086;6.588;2023-04-08T05:30:49;92575.19;;;2.57;42.58
67377;BME280;54261;46.086;6.588;2023-04-08T05:35:52;92578.28;;;3.48;41.12
67377;BME280;54261;46.086;6.588;2023-04-08T05:40:53;92577.69;;;3.61;40.68
67377;BME280;54261;46.086;6.588;2023-04-08T05:45:55;92587.72;;;3.69;40.18
67377;BME280;54261;46.086;6.588;2023-04-08T05:50:57;92595.38;;;3.86;40.45
67377;BME280;54261;46.086;6.588;2023-04-08T05:55:59;92589.84;;;3.78;40.46
67377;BME280;54261;46.086;6.588;2023-04-08T06:01:01;92603.09;;;3.83;39.93
67377;BME280;54261;46.086;6.588;2023-04-08T06:06:03;92593.50;;;3.92;40.06
67377;BME280;54261;46.086;6.588;2023-04-08T06:11:05;92587.63;;;4.00;39.73
67377;BME280;54261;46.086;6.588;2023-04-08T06:16:10;92609.41;;;4.03;40.23
67377;BME280;54261;46.086;6.588;2023-04-08T06:21:13;92607.00;;;4.01;39.98
67377;BME280;54261;46.086;6.588;2023-04-08T06:26:14;92616.50;;;4.18;40.36
67377;BME280;54261;46.086;6.588;2023-04-08T06:31:16;92618.34;;;4.22;40.41
67377;BME280;54261;46.086;6.588;2023-04-08T06:36:18;92606.53;;;4.44;40.91
67377;BME280;54261;46.086;6.588;2023-04-08T06:41:20;92610.00;;;4.39;40.41
67377;BME280;54261;46.086;6.588;2023-04-08T06:46:23;92598.03;;;4.42;40.46
67377;BME280;54261;46.086;6.588;2023-04-08T06:51:26;92610.72;;;4.55;40.70
67377;BME280;54261;46.086;6.588;2023-04-08T06:56:28;92616.50;;;4.63;40.49
67377;BME280;54261;46.086;6.588;2023-04-08T07:01:30;92624.31;;;4.49;40.69
67377;BME280;54261;46.086;6.588;2023-04-08T07:06:32;92615.53;;;4.53;40.69
67377;BME280;54261;46.086;6.588;2023-04-08T07:11:34;92613.78;;;4.28;41.90
67377;BME280;54261;46.086;6.588;2023-04-08T07:16:36;92604.13;;;4.42;41.41
67377;BME280;54261;46.086;6.588;2023-04-08T07:21:38;92626.41;;;4.92;41.12
67377;BME280;54261;46.086;6.588;2023-04-08T07:26:40;92626.97;;;4.89;41.04
67377;BME280;54261;46.086;6.588;2023-04-08T07:31:42;92627.81;;;5.13;40.85
67377;BME280;54261;46.086;6.588;2023-04-08T07:36:45;92636.47;;;4.15;41.19
67377;BME280;54261;46.086;6.588;2023-04-08T07:41:46;92635.63;;;4.70;41.18
67377;BME280;54261;46.086;6.588;2023-04-08T07:46:48;92632.13;;;4.75;41.57
67377;BME280;54261;46.086;6.588;2023-04-08T07:51:52;92636.69;;;5.33;40.15
67377;BME280;54261;46.086;6.588;2023-04-08T07:56:54;92640.88;;;5.45;40.83
67377;BME280;54261;46.086;6.588;2023-04-08T08:01:56;92642.28;;;5.02;41.14
67377;BME280;54261;46.086;6.588;2023-04-08T08:06:58;92651.50;;;5.50;40.91
67377;BME280;54261;46.086;6.588;2023-04-08T08:12:00;92647.97;;;5.25;41.38
67377;BME280;54261;46.086;6.588;2023-04-08T08:17:02;92657.06;;;1.26;52.28
67377;BME280;54261;46.086;6.588;2023-04-08T08:22:04;92652.31;;;0.08;58.69
67377;BME280;54261;46.086;6.588;2023-04-08T08:27:09;92655.19;;;0.29;56.61
67377;BME280;54261;46.086;6.588;2023-04-08T08:32:11;92650.81;;;-0.10;58.96
67377;BME280;54261;46.086;6.588;2023-04-08T08:37:13;92666.84;;;0.33;55.59
67377;BME280;54261;46.086;6.588;2023-04-08T08:42:22;92669.41;;;-1.18;64.07
67377;BME280;54261;46.086;6.588;2023-04-08T08:47:24;92672.00;;;-0.84;63.47
67377;BME280;54261;46.086;6.588;2023-04-08T08:52:26;92660.28;;;-0.93;63.43
67377;BME280;54261;46.086;6.588;2023-04-08T08:57:28;92687.13;;;-1.88;68.91
67377;BME280;54261;46.086;6.588;2023-04-08T09:02:30;92685.34;;;-2.53;69.91
67377;BME280;54261;46.086;6.588;2023-04-08T09:07:37;92672.41;;;-0.75;63.47
67377;BME280;54261;46.086;6.588;2023-04-08T09:12:54;92677.47;;;-0.51;63.46
67377;BME280;54261;46.086;6.588;2023-04-08T09:17:56;92680.91;;;-1.07;64.71
67377;BME280;54261;46.086;6.588;2023-04-08T09:23:00;92687.72;;;-1.57;65.57
67377;BME280;54261;46.086;6.588;2023-04-08T09:28:02;92693.06;;;-0.49;63.48
67377;BME280;54261;46.086;6.588;2023-04-08T09:33:04;92689.34;;;4.11;54.95
67377;BME280;54261;46.086;6.588;2023-04-08T09:38:08;92680.13;;;4.94;49.16
67377;BME280;54261;46.086;6.588;2023-04-08T09:43:12;92660.34;;;0.68;59.35
67377;BME280;54261;46.086;6.588;2023-04-08T09:48:26;92656.81;;;3.59;52.21
67377;BME280;54261;46.086;6.588;2023-04-08T09:53:35;92683.47;;;4.70;46.96
67377;BME280;54261;46.086;6.588;2023-04-08T09:58:48;92690.75;;;6.61;46.09
67377;BME280;54261;46.086;6.588;2023-04-08T10:03:54;92659.66;;;1.59;57.71
67377;BME280;54261;46.086;6.588;2023-04-08T10:08:58;92688.97;;;2.06;55.69
67377;BME280;54261;46.086;6.588;2023-04-08T10:14:02;92673.41;;;1.18;55.79
67377;BME280;54261;46.086;6.588;2023-04-08T10:19:39;92675.25;;;1.12;61.44
67377;BME280;54261;46.086;6.588;2023-04-08T10:35:34;92672.09;;;3.93;53.98
67377;BME280;54261;46.086;6.588;2023-04-08T10:40:39;92680.06;;;2.33;53.93
67377;BME280;54261;46.086;6.588;2023-04-08T10:45:43;92674.88;;;3.36;54.57
67377;BME280;54261;46.086;6.588;2023-04-08T10:56:13;92666.41;;;5.11;45.50
67377;BME280;54261;46.086;6.588;2023-04-08T11:01:19;92666.13;;;4.33;50.21
67377;BME280;54261;46.086;6.588;2023-04-08T11:06:22;92668.72;;;4.43;51.36
67377;BME280;54261;46.086;6.588;2023-04-08T11:11:25;92674.59;;;1.91;55.50
67377;BME280;54261;46.086;6.588;2023-04-08T11:16:30;92638.56;;;3.16;50.28
67377;BME280;54261;46.086;6.588;2023-04-08T11:21:36;92668.75;;;3.51;51.66
67377;BME280;54261;46.086;6.588;2023-04-08T11:26:39;92639.50;;;4.38;51.47
67377;BME280;54261;46.086;6.588;2023-04-08T11:31:42;92663.06;;;6.13;48.63
67377;BME280;54261;46.086;6.588;2023-04-08T11:36:45;92645.91;;;7.34;42.32
67377;BME280;54261;46.086;6.588;2023-04-08T11:41:47;92652.09;;;4.22;50.50
67377;BME280;54261;46.086;6.588;2023-04-08T11:46:52;92641.88;;;4.84;47.18
67377;BME280;54261;46.086;6.588;2023-04-08T11:51:58;92648.16;;;5.63;44.19
67377;BME280;54261;46.086;6.588;2023-04-08T11:57:00;92652.06;;;4.32;50.47
67377;BME280;54261;46.086;6.588;2023-04-08T12:02:03;92656.56;;;5.76;45.24
67377;BME280;54261;46.086;6.588;2023-04-08T12:07:05;92648.28;;;7.03;43.65
67377;BME280;54261;46.086;6.588;2023-04-08T12:12:07;92653.88;;;3.66;48.88
67377;BME280;54261;46.086;6.588;2023-04-08T12:17:09;92643.84;;;5.08;48.12
67377;BME280;54261;46.086;6.588;2023-04-08T12:22:11;92640.25;;;4.89;47.70
67377;BME280;54261;46.086;6.588;2023-04-08T12:27:13;92639.72;;;5.56;48.33
67377;BME280;54261;46.086;6.588;2023-04-08T12:32:15;92630.91;;;4.56;48.73
67377;BME280;54261;46.086;6.588;2023-04-08T12:37:16;92636.94;;;4.67;48.52
67377;BME280;54261;46.086;6.588;2023-04-08T12:42:18;92641.81;;;4.95;47.48
67377;BME280;54261;46.086;6.588;2023-04-08T12:47:20;92629.25;;;5.89;44.80
67377;BME280;54261;46.086;6.588;2023-04-08T12:52:26;92624.13;;;5.44;45.71
67377;BME280;54261;46.086;6.588;2023-04-08T12:57:27;92623.81;;;4.41;47.69
67377;BME280;54261;46.086;6.588;2023-04-08T13:02:29;92614.09;;;5.31;47.27
67377;BME280;54261;46.086;6.588;2023-04-08T13:07:31;92633.47;;;6.15;46.11
67377;BME280;54261;46.086;6.588;2023-04-08T13:12:33;92627.00;;;6.59;43.87
67377;BME280;54261;46.086;6.588;2023-04-08T13:17:35;92615.22;;;4.60;47.28
67377;BME280;54261;46.086;6.588;2023-04-08T13:22:37;92621.47;;;5.44;46.36
67377;BME280;54261;46.086;6.588;2023-04-08T13:27:39;92612.41;;;4.41;47.74
67377;BME280;54261;46.086;6.588;2023-04-08T13:32:41;92608.72;;;6.72;45.00
67377;BME280;54261;46.086;6.588;2023-04-08T13:37:43;92612.19;;;8.87;39.13
67377;BME280;54261;46.086;6.588;2023-04-08T13:42:46;92619.06;;;7.73;41.09
67377;BME280;54261;46.086;6.588;2023-04-08T13:47:48;92613.38;;;8.07;39.21
67377;BME280;54261;46.086;6.588;2023-04-08T13:52:50;92612.25;;;8.73;38.80
67377;BME280;54261;46.086;6.588;2023-04-08T13:57:52;92616.63;;;6.96;42.86
67377;BME280;54261;46.086;6.588;2023-04-08T14:02:53;92612.31;;;7.00;42.23
67377;BME280;54261;46.086;6.588;2023-04-08T14:07:55;92610.84;;;8.76;39.00
67377;BME280;54261;46.086;6.588;2023-04-08T14:12:57;92610.75;;;7.88;40.10
67377;BME280;54261;46.086;6.588;2023-04-08T14:17:59;92605.78;;;8.38;40.01
67377;BME280;54261;46.086;6.588;2023-04-08T14:23:01;92605.13;;;9.05;39.85
67377;BME280;54261;46.086;6.588;2023-04-08T14:28:03;92613.13;;;10.50;34.84
67377;BME280;54261;46.086;6.588;2023-04-08T14:33:05;92606.41;;;7.64;39.49
67377;BME280;54261;46.086;6.588;2023-04-08T14:38:07;92602.88;;;7.97;39.22
67377;BME280;54261;46.086;6.588;2023-04-08T14:43:09;92600.94;;;6.94;41.08
67377;BME280;54261;46.086;6.588;2023-04-08T14:48:11;92598.09;;;5.65;43.70
67377;BME280;54261;46.086;6.588;2023-04-08T14:53:12;92608.41;;;5.72;43.53
67377;BME280;54261;46.086;6.588;2023-04-08T14:58:14;92606.25;;;6.56;41.63
67377;BME280;54261;46.086;6.588;2023-04-08T15:03:17;92612.03;;;6.82;40.77
67377;BME280;54261;46.086;6.588;2023-04-08T15:08:29;92605.78;;;7.40;41.59
67377;BME280;54261;46.086;6.588;2023-04-08T15:13:31;92600.78;;;8.59;39.69
67377;BME280;54261;46.086;6.588;2023-04-08T15:18:33;92608.88;;;9.59;36.78
67377;BME280;54261;46.086;6.588;2023-04-08T15:23:34;92609.44;;;6.97;40.41
67377;BME280;54261;46.086;6.588;2023-04-08T15:28:37;92604.06;;;8.56;37.39
67377;BME280;54261;46.086;6.588;2023-04-08T15:33:40;92602.66;;;7.65;38.74
67377;BME280;54261;46.086;6.588;2023-04-08T15:38:44;92594.94;;;8.06;38.62
67377;BME280;54261;46.086;6.588;2023-04-08T15:43:47;92599.38;;;9.44;35.55
67377;BME280;54261;46.086;6.588;2023-04-08T15:48:49;92585.97;;;8.53;36.52
67377;BME280;54261;46.086;6.588;2023-04-08T15:53:52;92606.81;;;10.45;33.69
67377;BME280;54261;46.086;6.588;2023-04-08T15:58:54;92589.13;;;9.77;35.16
67377;BME280;54261;46.086;6.588;2023-04-08T16:03:59;92602.13;;;10.02;33.14
67377;BME280;54261;46.086;6.588;2023-04-08T16:09:01;92607.94;;;9.32;33.94
67377;BME280;54261;46.086;6.588;2023-04-08T16:14:03;92613.78;;;12.09;31.32
67377;BME280;54261;46.086;6.588;2023-04-08T16:19:05;92618.63;;;10.18;32.27
67377;BME280;54261;46.086;6.588;2023-04-08T16:24:08;92622.06;;;8.13;34.82
67377;BME280;54261;46.086;6.588;2023-04-08T16:29:09;92609.50;;;9.24;34.56
67377;BME280;54261;46.086;6.588;2023-04-08T16:34:11;92623.91;;;10.85;32.61
67377;BME280;54261;46.086;6.588;2023-04-08T16:39:14;92605.63;;;8.93;35.97
67377;BME280;54261;46.086;6.588;2023-04-08T16:44:16;92625.00;;;10.57;33.18
67377;BME280;54261;46.086;6.588;2023-04-08T16:49:18;92631.69;;;10.19;33.64
67377;BME280;54261;46.086;6.588;2023-04-08T16:54:20;92612.84;;;10.78;32.77
67377;BME280;54261;46.086;6.588;2023-04-08T16:59:22;92627.38;;;10.68;33.56
67377;BME280;54261;46.086;6.588;2023-04-08T17:04:24;92629.09;;;10.55;33.42
67377;BME280;54261;46.086;6.588;2023-04-08T17:09:26;92631.19;;;10.09;33.57
67377;BME280;54261;46.086;6.588;2023-04-08T17:14:28;92651.81;;;10.48;31.94
67377;BME280;54261;46.086;6.588;2023-04-08T17:19:30;92622.34;;;10.08;32.02
67377;BME280;54261;46.086;6.588;2023-04-08T17:24:32;92641.00;;;12.37;30.66
67377;BME280;54261;46.086;6.588;2023-04-08T17:29:34;92651.56;;;10.85;31.70
67377;BME280;54261;46.086;6.588;2023-04-08T17:34:36;92652.38;;;11.30;32.58
67377;BME280;54261;46.086;6.588;2023-04-08T17:39:38;92645.19;;;8.97;33.74
67377;BME280;54261;46.086;6.588;2023-04-08T17:44:41;92659.50;;;9.92;32.88
67377;BME280;54261;46.086;6.588;2023-04-08T17:49:45;92658.34;;;10.65;32.46
67377;BME280;54261;46.086;6.588;2023-04-08T17:54:47;92665.00;;;12.81;29.36
67377;BME280;54261;46.086;6.588;2023-04-08T17:59:49;92672.28;;;14.37;27.75
67377;BME280;54261;46.086;6.588;2023-04-08T18:04:52;92656.75;;;12.78;28.51
67377;BME280;54261;46.086;6.588;2023-04-08T18:09:54;92669.31;;;13.92;28.08
67377;BME280;54261;46.086;6.588;2023-04-08T18:14:58;92671.53;;;14.49;27.33
67377;BME280;54261;46.086;6.588;2023-04-08T18:20:00;92689.03;;;14.05;27.20
67377;BME280;54261;46.086;6.588;2023-04-08T18:25:03;92686.84;;;13.65;28.19
67377;BME280;54261;46.086;6.588;2023-04-08T18:30:05;92698.25;;;12.47;29.48
67377;BME280;54261;46.086;6.588;2023-04-08T18:35:08;92701.56;;;12.05;29.48
67377;BME280;54261;46.086;6.588;2023-04-08T18:40:10;92700.03;;;11.95;29.97
67377;BME280;54261;46.086;6.588;2023-04-08T18:45:13;92705.06;;;12.44;29.11
67377;BME280;54261;46.086;6.588;2023-04-08T18:50:15;92704.34;;;12.65;29.91
67377;BME280;54261;46.086;6.588;2023-04-08T18:55:17;92710.47;;;12.44;29.43
67377;BME280;54261;46.086;6.588;2023-04-08T19:00:19;92711.31;;;12.36;29.83
67377;BME280;54261;46.086;6.588;2023-04-08T19:05:22;92716.72;;;12.18;30.92
67377;BME280;54261;46.086;6.588;2023-04-08T19:10:24;92723.19;;;12.26;30.34
67377;BME280;54261;46.086;6.588;2023-04-08T19:15:27;92725.56;;;10.19;32.00
67377;BME280;54261;46.086;6.588;2023-04-08T19:20:31;92729.22;;;8.17;35.15
67377;BME280;54261;46.086;6.588;2023-04-08T19:25:34;92736.09;;;9.16;33.82
67377;BME280;54261;46.086;6.588;2023-04-08T19:30:37;92734.16;;;9.53;33.87
67377;BME280;54261;46.086;6.588;2023-04-08T19:35:39;92731.28;;;10.27;32.04
67377;BME280;54261;46.086;6.588;2023-04-08T19:40:41;92739.94;;;10.24;32.94
67377;BME280;54261;46.086;6.588;2023-04-08T19:45:43;92741.13;;;10.40;32.33
67377;BME280;54261;46.086;6.588;2023-04-08T19:50:45;92744.28;;;10.92;31.66
67377;BME280;54261;46.086;6.588;2023-04-08T19:55:47;92753.25;;;10.78;31.46
67377;BME280;54261;46.086;6.588;2023-04-08T20:00:49;92764.59;;;10.26;33.07
67377;BME280;54261;46.086;6.588;2023-04-08T20:05:51;92758.06;;;9.72;33.25
67377;BME280;54261;46.086;6.588;2023-04-08T20:10:53;92758.44;;;9.80;32.91
67377;BME280;54261;46.086;6.588;2023-04-08T20:15:55;92757.91;;;8.95;35.71
67377;BME280;54261;46.086;6.588;2023-04-08T20:20:57;92753.41;;;9.18;34.65
67377;BME280;54261;46.086;6.588;2023-04-08T20:26:00;92760.34;;;9.56;33.36
67377;BME280;54261;46.086;6.588;2023-04-08T20:31:02;92752.00;;;8.42;35.65
67377;BME280;54261;46.086;6.588;2023-04-08T20:36:04;92752.78;;;8.15;36.46
67377;BME280;54261;46.086;6.588;2023-04-08T20:41:06;92756.44;;;8.75;36.04
67377;BME280;54261;46.086;6.588;2023-04-08T20:46:08;92754.03;;;9.15;35.07
67377;BME280;54261;46.086;6.588;2023-04-08T20:51:11;92745.53;;;8.85;35.45
67377;BME280;54261;46.086;6.588;2023-04-08T20:56:13;92752.72;;;9.13;34.82
67377;BME280;54261;46.086;6.588;2023-04-08T21:01:14;92747.50;;;9.08;35.17
67377;BME280;54261;46.086;6.588;2023-04-08T21:06:17;92750.00;;;8.76;35.38
67377;BME280;54261;46.086;6.588;2023-04-08T21:11:19;92750.69;;;8.96;34.54
67377;BME280;54261;46.086;6.588;2023-04-08T21:16:21;92738.53;;;8.33;35.47
67377;BME280;54261;46.086;6.588;2023-04-08T21:21:23;92752.59;;;8.39;36.26
67377;BME280;54261;46.086;6.588;2023-04-08T21:26:26;92755.34;;;8.90;35.28
67377;BME280;54261;46.086;6.588;2023-04-08T21:31:28;92761.81;;;7.14;37.76
67377;BME280;54261;46.086;6.588;2023-04-08T21:36:30;92754.53;;;7.20;38.23
67377;BME280;54261;46.086;6.588;2023-04-08T21:41:32;92732.25;;;6.67;38.78
67377;BME280;54261;46.086;6.588;2023-04-08T21:46:34;92759.56;;;7.60;37.21
67377;BME280;54261;46.086;6.588;2023-04-08T21:51:36;92764.13;;;7.92;37.11
67377;BME280;54261;46.086;6.588;2023-04-08T21:56:39;92763.31;;;7.59;37.22
67377;BME280;54261;46.086;6.588;2023-04-08T22:01:41;92762.75;;;7.76;36.76
67377;BME280;54261;46.086;6.588;2023-04-08T22:06:44;92754.75;;;6.61;38.37
67377;BME280;54261;46.086;6.588;2023-04-08T22:11:46;92756.28;;;6.91;37.80
67377;BME280;54261;46.086;6.588;2023-04-08T22:16:48;92753.75;;;7.72;37.20
67377;BME280;54261;46.086;6.588;2023-04-08T22:21:50;92751.41;;;6.74;37.88
67377;BME280;54261;46.086;6.588;2023-04-08T22:26:52;92763.69;;;7.14;37.95
67377;BME280;54261;46.086;6.588;2023-04-08T22:31:55;92770.53;;;7.01;38.00
67377;BME280;54261;46.086;6.588;2023-04-08T22:36:56;92768.16;;;7.37;37.06
67377;BME280;54261;46.086;6.588;2023-04-08T22:41:58;92768.25;;;6.70;37.40
67377;BME280;54261;46.086;6.588;2023-04-08T22:47:00;92771.22;;;7.12;37.71
67377;BME280;54261;46.086;6.588;2023-04-08T22:52:02;92767.69;;;7.69;36.48
67377;BME280;54261;46.086;6.588;2023-04-08T22:57:04;92755.53;;;6.86;38.33
67377;BME280;54261;46.086;6.588;2023-04-08T23:02:06;92762.91;;;5.27;40.39
67377;BME280;54261;46.086;6.588;2023-04-08T23:07:08;92764.66;;;6.06;39.05
67377;BME280;54261;46.086;6.588;2023-04-08T23:12:10;92765.38;;;6.42;38.89
67377;BME280;54261;46.086;6.588;2023-04-08T23:17:12;92764.69;;;7.18;38.25
67377;BME280;54261;46.086;6.588;2023-04-08T23:22:14;92767.00;;;7.24;37.38
67377;BME280;54261;46.086;6.588;2023-04-08T23:27:16;92767.69;;;6.73;38.54
67377;BME280;54261;46.086;6.588;2023-04-08T23:32:18;92774.47;;;6.11;38.66
67377;BME280;54261;46.086;6.588;2023-04-08T23:37:19;92775.28;;;6.85;38.33
67377;BME280;54261;46.086;6.588;2023-04-08T23:42:22;92770.13;;;6.93;38.02
67377;BME280;54261;46.086;6.588;2023-04-08T23:47:28;92769.91;;;6.65;38.50
67377;BME280;54261;46.086;6.588;2023-04-08T23:52:31;92755.06;;;5.46;39.56
67377;BME280;54261;46.086;6.588;2023-04-08T23:57:33;92766.44;;;5.12;41.28
